Aviation Digital Data Service (ADDS)

Output produced by METARs form (2211 UTC 28 March 2015)
found at http://aviationweather.gov/adds/metars/
 
KMSS 281720Z 2818/2918 33008KT P6SM SKC 
     FM290300 25003KT P6SM SKC